Barksdale Air Force Base
KBAD : rendu visible

Aérodrome :











RETROUVEZ-NOUS SUR...

 
LOGIN :

S'inscrire | Disclaimer

   EN    FR    IT 

 









Légende :    VFR   VFR Marginal   IFR   IFR Intensif   IFR Très Intensif
Visi : 
Plafond : 
>= 8 km
>= 3000ft
5 à 8 km
1000 à 3000 ft
1500m à 5 km
500 à 1000 ft
800 à 1500m
200 à 500 ft
< 800m
< 200 ft
Symboles :   Orages  Brouillard  Fortes neiges  Fortes précipitations  Vent > 20 kt






- Altitude de l'aérodrome : 166 ft


KBAD - Barksdale Air Force Base

DERNIER METAR :
  • 191256Z AUTO 00000KT 10SM CLR 02/01 A2995 RMK AO2 SLP146 T00180014

METARs EXPIRÉS :
  • 191156Z AUTO 00000KT 10SM CLR 04/03 A2993 RMK AO2 SLP138 T00350032 10052 20019 53008
  • 191056Z AUTO 00000KT 10SM CLR 02/02 A2991 RMK AO2 SLP131 T00200017

TAF TAF KBAD
Valide du 19 à 10h jusqu'au 20 à 16h UTC


191000Z 1910/2016 30006KT 9999 FEW250 QNH2989INS WND 16005KT AFT 2005 TX21/1921Z TN03/1912Z



MET'MAP, la Météo Aéronautique d'un coup d'oeil ! - Copyright ORBIFLY Décembre 2007 - Disclaimer

ORBIFLY MET'MAP TEAM :

Programmation & Développement : Alexandra Zaïnal
Conception & Développement : Baudouin d'Aumeries
Co-Programmation & Développement : Marc-Olivier Méhu
Soutien technique & logistique : Manuel Goepfert

Contact : metmap@orbifly.com




SOURCES & CREDITS :

   NOAA       Earth
Advisory